ADDS METAR Data INFO
IDs: Format: Raw Decoded Include TAF

Data at: 0339 UTC 28 Jun 2017

KBML 280316Z AUTO 17003KT 10SM BKN005 OVC065 13/11 A2994 RMK AO2 CIG 003V011 T01280111
KBML 280301Z AUTO 00000KT 10SM SCT005 BKN060 13/11 A2993 RMK AO2 T01280106
KBML 280252Z AUTO 00000KT 10SM BKN060 OVC080 13/11 A2993 RMK AO2 RAE31 SLP136 P0006 60009 T01280106 50009
KBML 280214Z AUTO 04003KT 5SM -RA BR FEW032 BKN050 OVC065 13/11 A2993 RMK AO2 LTG DSNT SE P0006 T01280111
KBML 280152Z AUTO VRB03KT 2 1/2SM RA BR FEW021 BKN032 OVC070 13/11 A2995 RMK AO2 VIS 1 3/4V4 RAB08 SLP142 P0003 T01330111
KBML 280052Z AUTO 00000KT 10SM CLR 13/12 A2991 RMK AO2 LTG DSNT S-W SLP129 T01330117
KBML 272352Z AUTO 00000KT 10SM FEW050 BKN080 15/11 A2990 RMK AO2 LTG DSNT NE AND SE RAE19 SLP127 P0002 60021 T01500111 10211 20150 53009
KBML 272308Z AUTO 36011G17KT 6SM -RA SCT030 BKN055 OVC070 16/10 A2991 RMK AO2 LTG DSNT N-E P0002 T01560100
KBML 272301Z AUTO 32011G17KT 300V360 2SM VCTS -RA FEW024 BKN060 OVC070 15/11 A2991 RMK AO2 LTG DSNT ALQDS P0001 T01500106
KBML 272252Z AUTO 21007KT 190V260 1SM VCTS RA FEW020 BKN055 OVC070 16/13 A2990 RMK AO2 VIS 1/4V5 LTG DSNT N AND NE AND S RAB23 SLP129 P0008 T01560128
KBML 272152Z AUTO VRB05KT 10SM FEW060 BKN085 OVC100 19/12 A2987 RMK AO2 LTG DSNT W RAB17E30 SLP118 P0000 T01890122
KBML 272052Z AUTO 22004KT 10SM CLR 21/11 A2988 RMK AO2 RAE1959 SLP118 P0000 60011 T02060106 58015
KBML 271952Z AUTO 14004KT 7SM -RA FEW045 BKN070 OVC110 17/12 A2991 RMK AO2 LTG DSNT N AND NE RAB27 SLP132 P0011 T01670122
KBML 271950Z AUTO 16005KT 4SM -RA FEW037 BKN070 OVC100 16/11 A2991 RMK AO2 LTG DSNT N AND NE RAB27 P0011
KBML 271938Z AUTO 19012G17KT 1 3/4SM RA BKN060 OVC075 17/11 A2992 RMK AO2 VIS 1 1/4V3 LTG DSNT N AND NE RAB27 P0007 T01670111
KBML 271928Z AUTO 18010G18KT 8SM -RA SCT060 OVC080 18/10 A2991 RMK AO2 LTG DSNT N RAB27 P0000 T01830100
KBML 271913Z AUTO 14009KT 10SM VCTS BKN060 OVC080 19/10 A2991 RMK AO2 LTG DSNT N AND NE T01940100
KBML 271852Z AUTO 19006KT 10SM SCT070 BKN090 21/09 A2991 RMK AO2 LTG DSNT N AND NE RAB14E24 SLP128 P0000 T02060094
KBML 271752Z AUTO 08004KT 10SM SCT050 BKN060 OVC100 20/13 A2992 RMK AO2 RAB1659E15 SLP134 P0002 60002 T02000128 10217 20133 56018
KBML 271652Z AUTO 14006KT 10SM BKN055 BKN070 OVC100 19/09 A2994 RMK AO2 SLP140 T01940089
KBML 271552Z AUTO 16004KT 10SM FEW047 FEW055 SCT085 21/07 A2996 RMK AO2 SLP145 T02110072
KBML 271452Z AUTO 00000KT 10SM FEW038 19/09 A2998 RMK AO2 SLP152 T01940089 56008
KBML 271352Z AUTO 00000KT 10SM CLR 18/10 A2998 RMK AO2 SLP154 T01830100
KBML 271252Z AUTO 00000KT 10SM CLR 16/10 A3000 RMK AO2 SLP158 T01610100
KBML 271152Z AUTO 00000KT 10SM FEW085 13/09 A3000 RMK AO2 SLP161 T01330094 10133 20067 50005
KBML 271106Z AUTO 00000KT 10SM SCT002 BKN095 10/08 A3000 RMK AO2 T01000083
KBML 271052Z AUTO 00000KT 7SM BKN002 OVC095 10/08 A3001 RMK AO2 SLP162 T01000083
KBML 271019Z AUTO 00000KT 8SM BKN002 OVC090 09/08 A3000 RMK AO2 T00940078
KBML 271010Z AUTO 00000KT 10SM SCT002 BKN090 OVC110 09/07 A3000 RMK AO2 T00890072
KBML 270952Z AUTO 00000KT 10SM BKN090 BKN110 09/08 A3000 RMK AO2 SLP160 T00890078
KBML 270931Z AUTO 24003KT 3SM BR SCT001 OVC100 09/07 A2998 RMK AO2 T00890072
KBML 270920Z AUTO 00000KT 2SM BR BKN001 OVC100 09/07 A2998 RMK AO2 T00890072
KBML 270917Z AUTO 00000KT 3/4SM BR OVC001 09/07 A2999 RMK AO2 T00890072
KBML 270909Z AUTO 36003KT 1 1/4SM BR OVC001 09/07 A2999 RMK AO2 T00890072
KBML 270901Z AUTO 00000KT 2SM BR OVC001 08/07 A2999 RMK AO2 T00830067
KBML 270852Z AUTO 00000KT 1SM BR VV001 08/07 A2999 RMK AO2 SLP156 T00830067 53001
KBML 270835Z AUTO 00000KT 1SM BR VV001 08/06 A2998 RMK AO2 T00780061
KBML 270803Z AUTO 00000KT 1/4SM FG VV001 08/07 A2998 RMK AO2 T00780067
KBML 270754Z AUTO 00000KT 3/4SM BR VV001 07/06 A2998 RMK AO2 T00720056
KBML 270752Z AUTO 00000KT 1 3/4SM BR BKN001 07/06 A2998 RMK AO2 SLP152 T00720056
KBML 270736Z AUTO 00000KT 10SM SCT001 07/05 A2998 RMK AO2 T00670050
KBML 270728Z AUTO 00000KT 10SM BKN001 08/06 A2998 RMK AO2 T00780061
KBML 270718Z AUTO 00000KT 10SM BKN002 08/06 A2998 RMK AO2 T00780056
KBML 270652Z AUTO 00000KT 10SM FEW002 08/07 A2999 RMK AO2 SLP156 T00830067
KBML 270637Z AUTO 00000KT 10SM FEW002 08/07 A2999 RMK AO2 T00830067
KBML 270552Z AUTO 00000KT 10SM CLR 08/06 A2998 RMK AO2 SLP155 60000 T00830061 10189 20078 52003
KBML 270452Z AUTO 00000KT 10SM CLR 10/08 A2998 RMK AO2 SLP154 T01000078 402110083
KBML 270352Z AUTO 00000KT 10SM SCT050 11/08 A2998 RMK AO2 SLP153 T01060083
KBML 270252Z AUTO 00000KT 10SM FEW065 12/09 A2997 RMK AO2 RAB04E14 SLP151 P0000 60000 T01220094 51004
KBML 270152Z AUTO 00000KT 10SM FEW060 SCT075 BKN120 14/11 A2997 RMK AO2 SLP151 T01390106
KBML 270052Z AUTO 00000KT 10SM BKN070 OVC085 15/12 A2996 RMK AO2 SLP147 T01500117
KBML 262352Z AUTO 00000KT 10SM OVC065 19/09 A2996 RMK AO2 SLP145 T01890089 10211 20183 53006
KBML 262252Z AUTO 22004KT 10SM CLR 20/07 A2995 RMK AO2 SLP141 T02000067
KBML 262152Z AUTO 00000KT 10SM FEW050 BKN075 21/07 A2994 RMK AO2 SLP139 T02060072
KBML 262052Z AUTO VRB05KT 10SM OVC080 20/06 A2994 RMK AO2 SLP140 T02000061 58004
KBML 261952Z AUTO 32007KT 10SM FEW046 OVC080 21/08 A2995 RMK AO2 SLP142 T02110083
KBML 261852Z AUTO 23008KT 210V270 10SM BKN044 BKN060 OVC080 19/08 A2996 RMK AO2 SLP146 T01890078
KBML 261752Z AUTO VRB05KT 10SM FEW039 OVC070 19/08 A2995 RMK AO2 SLP144 T01890083 10200 20144 58004
KBML 261652Z AUTO 23007KT 10SM FEW039 OVC065 17/08 A2997 RMK AO2 SLP150 T01720078
KBML 261621Z AUTO 31007KT 280V350 10SM SCT029 BKN038 OVC060 18/08 A2997 RMK AO2 T01830078
KBML 261607Z AUTO VRB04KT 10SM BKN029 BKN035 OVC060 17/09 A2997 RMK AO2 T01720089
KBML 261552Z AUTO VRB04KT 10SM SCT030 BKN037 OVC055 18/09 A2997 RMK AO2 SLP152 T01780089


Page loaded:  03:39 UTC  |   08:39 PM Pacific  |   09:39 PM Mountain  |   10:39 PM Central  |   11:39 PM Eastern

 

ADVISORIES

FORECASTS

FORECASTS

OBSERVATIONS

USER TOOLS

ABOUT US